Terminal Aerodrome Forecast
Issued by NWS Wakefield, VA

Home | Current Version | Previous Version | Text Only | Print | Product List | Glossary On
Versions: 1 2 3 4 5 6 7 8 9 10 11 12 13 14 15 16 17 18 19 20 21 22 23 24 25 26 27 28 29
390
FTUS41 KAKQ 171159 CCA
TAFORF
TAF COR
KORF 171159Z 1712/1812 21005KT P6SM OVC006
      TEMPO 1712/1716 5SM BR OVC004
     FM171600 21008KT P6SM VCSH OVC015
     FM172000 21009KT P6SM VCSH OVC040
     FM180000 21011KT P6SM OVC025
     FM180500 22012KT 6SM -SHRA OVC015=

USA.gov is the U.S. government's official web portal to all federal, state and local government web resources and services.